sensor_id;sensor_type;location;lat;lon;timestamp;P1;durP1;ratioP1;P2;durP2;ratioP2
56381;SDS011;74506;51.150;4.470;2023-12-28T00:00:30;4.30;;;1.90;;
56381;SDS011;74506;51.150;4.470;2023-12-28T00:02:55;1.80;;;1.15;;
56381;SDS011;74506;51.150;4.470;2023-12-28T00:05:21;5.38;;;1.50;;
56381;SDS011;74506;51.150;4.470;2023-12-28T00:07:47;4.07;;;1.98;;
56381;SDS011;74506;51.150;4.470;2023-12-28T00:10:13;3.05;;;1.98;;
56381;SDS011;74506;51.150;4.470;2023-12-28T00:12:38;2.72;;;1.50;;
56381;SDS011;74506;51.150;4.470;2023-12-28T00:15:04;4.18;;;2.13;;
56381;SDS011;74506;51.150;4.470;2023-12-28T00:17:30;2.83;;;1.63;;
56381;SDS011;74506;51.150;4.470;2023-12-28T00:19:56;2.30;;;1.38;;
56381;SDS011;74506;51.150;4.470;2023-12-28T00:22:22;2.42;;;1.35;;
56381;SDS011;74506;51.150;4.470;2023-12-28T00:24:47;5.20;;;2.15;;
56381;SDS011;74506;51.150;4.470;2023-12-28T00:27:13;3.65;;;2.00;;
56381;SDS011;74506;51.150;4.470;2023-12-28T00:29:39;2.60;;;1.35;;
56381;SDS011;74506;51.150;4.470;2023-12-28T00:32:06;2.95;;;2.17;;
56381;SDS011;74506;51.150;4.470;2023-12-28T00:34:32;3.15;;;1.50;;
56381;SDS011;74506;51.150;4.470;2023-12-28T00:36:58;2.72;;;1.63;;
56381;SDS011;74506;51.150;4.470;2023-12-28T00:39:23;2.22;;;1.35;;
56381;SDS011;74506;51.150;4.470;2023-12-28T00:41:49;1.83;;;1.60;;
56381;SDS011;74506;51.150;4.470;2023-12-28T00:44:15;3.75;;;1.88;;
56381;SDS011;74506;51.150;4.470;2023-12-28T00:46:40;3.92;;;1.92;;
56381;SDS011;74506;51.150;4.470;2023-12-28T00:49:06;7.63;;;2.30;;
56381;SDS011;74506;51.150;4.470;2023-12-28T00:51:33;2.03;;;1.38;;
56381;SDS011;74506;51.150;4.470;2023-12-28T00:53:58;2.17;;;1.45;;
56381;SDS011;74506;51.150;4.470;2023-12-28T00:56:24;4.13;;;1.73;;
56381;SDS011;74506;51.150;4.470;2023-12-28T00:58:50;4.32;;;1.85;;
56381;SDS011;74506;51.150;4.470;2023-12-28T01:01:17;2.78;;;1.75;;
56381;SDS011;74506;51.150;4.470;2023-12-28T01:03:43;5.60;;;1.70;;
56381;SDS011;74506;51.150;4.470;2023-12-28T01:06:09;5.07;;;1.58;;
56381;SDS011;74506;51.150;4.470;2023-12-28T01:08:34;4.38;;;1.75;;
56381;SDS011;74506;51.150;4.470;2023-12-28T01:11:00;6.20;;;1.77;;
56381;SDS011;74506;51.150;4.470;2023-12-28T01:13:27;2.22;;;1.30;;
56381;SDS011;74506;51.150;4.470;2023-12-28T01:15:53;4.47;;;2.08;;
56381;SDS011;74506;51.150;4.470;2023-12-28T01:18:19;4.03;;;1.52;;
56381;SDS011;74506;51.150;4.470;2023-12-28T01:20:45;2.45;;;1.58;;
56381;SDS011;74506;51.150;4.470;2023-12-28T01:23:10;3.25;;;1.63;;
56381;SDS011;74506;51.150;4.470;2023-12-28T01:25:36;3.78;;;1.35;;
56381;SDS011;74506;51.150;4.470;2023-12-28T01:28:02;2.80;;;1.60;;
56381;SDS011;74506;51.150;4.470;2023-12-28T01:30:27;4.35;;;2.13;;
56381;SDS011;74506;51.150;4.470;2023-12-28T01:32:53;2.58;;;1.80;;
56381;SDS011;74506;51.150;4.470;2023-12-28T01:35:19;4.80;;;1.83;;
56381;SDS011;74506;51.150;4.470;2023-12-28T01:37:45;3.05;;;1.40;;
56381;SDS011;74506;51.150;4.470;2023-12-28T01:40:11;2.25;;;1.40;;
56381;SDS011;74506;51.150;4.470;2023-12-28T01:42:37;3.95;;;1.90;;
56381;SDS011;74506;51.150;4.470;2023-12-28T01:45:03;3.00;;;1.13;;
56381;SDS011;74506;51.150;4.470;2023-12-28T01:47:29;4.50;;;1.85;;
56381;SDS011;74506;51.150;4.470;2023-12-28T01:49:55;4.45;;;1.52;;
56381;SDS011;74506;51.150;4.470;2023-12-28T01:52:21;5.10;;;1.85;;
56381;SDS011;74506;51.150;4.470;2023-12-28T01:54:47;5.82;;;1.80;;
56381;SDS011;74506;51.150;4.470;2023-12-28T01:57:13;4.22;;;1.50;;
56381;SDS011;74506;51.150;4.470;2023-12-28T01:59:39;3.13;;;1.27;;
56381;SDS011;74506;51.150;4.470;2023-12-28T02:02:05;2.47;;;1.52;;
56381;SDS011;74506;51.150;4.470;2023-12-28T02:04:31;5.22;;;1.80;;
56381;SDS011;74506;51.150;4.470;2023-12-28T02:06:57;2.72;;;1.40;;
56381;SDS011;74506;51.150;4.470;2023-12-28T02:09:23;5.05;;;1.83;;
56381;SDS011;74506;51.150;4.470;2023-12-28T02:11:49;3.97;;;1.80;;
56381;SDS011;74506;51.150;4.470;2023-12-28T02:14:15;3.40;;;1.80;;
56381;SDS011;74506;51.150;4.470;2023-12-28T02:16:52;4.85;;;1.30;;
56381;SDS011;74506;51.150;4.470;2023-12-28T02:21:48;3.45;;;1.70;;
56381;SDS011;74506;51.150;4.470;2023-12-28T02:24:14;4.35;;;1.80;;
56381;SDS011;74506;51.150;4.470;2023-12-28T02:26:40;3.75;;;1.40;;
56381;SDS011;74506;51.150;4.470;2023-12-28T02:29:05;2.65;;;1.27;;
56381;SDS011;74506;51.150;4.470;2023-12-28T02:31:35;3.17;;;1.38;;
56381;SDS011;74506;51.150;4.470;2023-12-28T02:34:11;6.57;;;2.03;;
56381;SDS011;74506;51.150;4.470;2023-12-28T02:36:38;7.00;;;1.85;;
56381;SDS011;74506;51.150;4.470;2023-12-28T02:39:04;3.92;;;1.83;;
56381;SDS011;74506;51.150;4.470;2023-12-28T02:41:31;3.95;;;1.48;;
56381;SDS011;74506;51.150;4.470;2023-12-28T02:43:57;2.25;;;1.15;;
56381;SDS011;74506;51.150;4.470;2023-12-28T02:46:22;7.63;;;2.22;;
56381;SDS011;74506;51.150;4.470;2023-12-28T02:48:48;5.25;;;1.50;;
56381;SDS011;74506;51.150;4.470;2023-12-28T02:51:14;4.85;;;1.05;;
56381;SDS011;74506;51.150;4.470;2023-12-28T02:53:41;3.63;;;1.25;;
56381;SDS011;74506;51.150;4.470;2023-12-28T02:56:07;2.63;;;0.88;;
56381;SDS011;74506;51.150;4.470;2023-12-28T02:58:33;4.85;;;1.40;;
56381;SDS011;74506;51.150;4.470;2023-12-28T03:00:59;6.03;;;1.52;;
56381;SDS011;74506;51.150;4.470;2023-12-28T03:03:24;4.60;;;1.35;;
56381;SDS011;74506;51.150;4.470;2023-12-28T03:05:50;3.65;;;1.50;;
56381;SDS011;74506;51.150;4.470;2023-12-28T03:08:16;3.78;;;1.42;;
56381;SDS011;74506;51.150;4.470;2023-12-28T03:10:42;7.38;;;2.55;;
56381;SDS011;74506;51.150;4.470;2023-12-28T03:13:07;3.35;;;1.30;;
56381;SDS011;74506;51.150;4.470;2023-12-28T03:15:33;7.13;;;1.63;;
56381;SDS011;74506;51.150;4.470;2023-12-28T03:17:59;5.22;;;1.40;;
56381;SDS011;74506;51.150;4.470;2023-12-28T03:20:24;2.47;;;0.90;;
56381;SDS011;74506;51.150;4.470;2023-12-28T03:22:50;4.53;;;1.15;;
56381;SDS011;74506;51.150;4.470;2023-12-28T03:25:19;2.70;;;1.13;;
56381;SDS011;74506;51.150;4.470;2023-12-28T03:27:44;5.85;;;1.60;;
56381;SDS011;74506;51.150;4.470;2023-12-28T03:30:11;5.22;;;1.80;;
56381;SDS011;74506;51.150;4.470;2023-12-28T03:32:37;4.68;;;1.33;;
56381;SDS011;74506;51.150;4.470;2023-12-28T03:35:03;6.03;;;1.83;;
56381;SDS011;74506;51.150;4.470;2023-12-28T03:37:29;4.22;;;1.70;;
56381;SDS011;74506;51.150;4.470;2023-12-28T03:39:55;7.35;;;1.65;;
56381;SDS011;74506;51.150;4.470;2023-12-28T03:42:20;4.13;;;1.40;;
56381;SDS011;74506;51.150;4.470;2023-12-28T03:44:47;5.75;;;1.98;;
56381;SDS011;74506;51.150;4.470;2023-12-28T03:47:13;6.18;;;1.70;;
56381;SDS011;74506;51.150;4.470;2023-12-28T03:49:38;6.88;;;2.05;;
56381;SDS011;74506;51.150;4.470;2023-12-28T03:52:04;3.85;;;1.70;;
56381;SDS011;74506;51.150;4.470;2023-12-28T03:54:30;1.80;;;1.27;;
56381;SDS011;74506;51.150;4.470;2023-12-28T03:56:56;3.25;;;1.67;;
56381;SDS011;74506;51.150;4.470;2023-12-28T03:59:22;3.88;;;1.67;;
56381;SDS011;74506;51.150;4.470;2023-12-28T04:01:48;5.65;;;1.60;;
56381;SDS011;74506;51.150;4.470;2023-12-28T04:04:16;6.97;;;1.55;;
56381;SDS011;74506;51.150;4.470;2023-12-28T04:06:41;4.57;;;1.25;;
56381;SDS011;74506;51.150;4.470;2023-12-28T04:09:11;5.35;;;1.40;;
56381;SDS011;74506;51.150;4.470;2023-12-28T04:11:37;7.25;;;2.15;;
56381;SDS011;74506;51.150;4.470;2023-12-28T04:14:03;2.88;;;1.00;;
56381;SDS011;74506;51.150;4.470;2023-12-28T04:16:29;6.45;;;1.55;;
56381;SDS011;74506;51.150;4.470;2023-12-28T04:18:54;4.47;;;1.30;;
56381;SDS011;74506;51.150;4.470;2023-12-28T04:21:20;4.10;;;0.88;;
56381;SDS011;74506;51.150;4.470;2023-12-28T04:23:47;3.83;;;1.50;;
56381;SDS011;74506;51.150;4.470;2023-12-28T04:26:12;7.43;;;1.80;;
56381;SDS011;74506;51.150;4.470;2023-12-28T04:28:38;10.40;;;1.75;;
56381;SDS011;74506;51.150;4.470;2023-12-28T04:31:05;3.30;;;1.30;;
56381;SDS011;74506;51.150;4.470;2023-12-28T04:33:31;9.38;;;1.63;;
56381;SDS011;74506;51.150;4.470;2023-12-28T04:35:57;7.35;;;1.95;;
56381;SDS011;74506;51.150;4.470;2023-12-28T04:38:23;7.53;;;1.77;;
56381;SDS011;74506;51.150;4.470;2023-12-28T04:40:48;4.97;;;1.25;;
56381;SDS011;74506;51.150;4.470;2023-12-28T04:43:14;4.10;;;1.35;;
56381;SDS011;74506;51.150;4.470;2023-12-28T04:45:40;6.63;;;1.85;;
56381;SDS011;74506;51.150;4.470;2023-12-28T04:48:06;7.25;;;1.40;;
56381;SDS011;74506;51.150;4.470;2023-12-28T04:50:33;6.95;;;1.60;;
56381;SDS011;74506;51.150;4.470;2023-12-28T04:52:58;3.83;;;1.65;;
56381;SDS011;74506;51.150;4.470;2023-12-28T04:55:25;4.18;;;1.60;;
56381;SDS011;74506;51.150;4.470;2023-12-28T04:57:50;6.05;;;1.60;;
56381;SDS011;74506;51.150;4.470;2023-12-28T05:00:17;3.00;;;0.93;;
56381;SDS011;74506;51.150;4.470;2023-12-28T05:02:43;6.03;;;1.35;;
56381;SDS011;74506;51.150;4.470;2023-12-28T05:05:11;9.10;;;1.58;;
56381;SDS011;74506;51.150;4.470;2023-12-28T05:07:37;3.75;;;1.70;;
56381;SDS011;74506;51.150;4.470;2023-12-28T05:10:03;10.07;;;1.45;;
56381;SDS011;74506;51.150;4.470;2023-12-28T05:12:29;4.70;;;1.45;;
56381;SDS011;74506;51.150;4.470;2023-12-28T05:14:55;2.90;;;1.80;;
56381;SDS011;74506;51.150;4.470;2023-12-28T05:17:20;5.18;;;1.02;;
56381;SDS011;74506;51.150;4.470;2023-12-28T05:19:46;4.03;;;1.10;;
56381;SDS011;74506;51.150;4.470;2023-12-28T05:22:12;3.72;;;1.35;;
56381;SDS011;74506;51.150;4.470;2023-12-28T05:24:40;8.98;;;1.17;;
56381;SDS011;74506;51.150;4.470;2023-12-28T05:27:09;6.60;;;1.35;;
56381;SDS011;74506;51.150;4.470;2023-12-28T05:29:37;4.82;;;1.17;;
56381;SDS011;74506;51.150;4.470;2023-12-28T05:32:06;4.65;;;1.00;;
56381;SDS011;74506;51.150;4.470;2023-12-28T05:34:34;8.18;;;1.70;;
56381;SDS011;74506;51.150;4.470;2023-12-28T05:37:00;5.03;;;1.48;;
56381;SDS011;74506;51.150;4.470;2023-12-28T05:39:25;9.25;;;1.48;;
56381;SDS011;74506;51.150;4.470;2023-12-28T05:41:51;6.30;;;1.20;;
56381;SDS011;74506;51.150;4.470;2023-12-28T05:44:17;6.40;;;1.40;;
56381;SDS011;74506;51.150;4.470;2023-12-28T05:46:42;4.90;;;1.25;;
56381;SDS011;74506;51.150;4.470;2023-12-28T05:49:08;6.57;;;1.27;;
56381;SDS011;74506;51.150;4.470;2023-12-28T05:51:40;10.90;;;1.52;;
56381;SDS011;74506;51.150;4.470;2023-12-28T05:54:06;7.78;;;1.45;;
56381;SDS011;74506;51.150;4.470;2023-12-28T05:56:32;5.90;;;1.30;;
56381;SDS011;74506;51.150;4.470;2023-12-28T05:58:57;11.57;;;2.15;;
56381;SDS011;74506;51.150;4.470;2023-12-28T06:01:24;11.23;;;1.92;;
56381;SDS011;74506;51.150;4.470;2023-12-28T06:03:49;10.32;;;2.33;;
56381;SDS011;74506;51.150;4.470;2023-12-28T06:06:18;7.03;;;1.77;;
56381;SDS011;74506;51.150;4.470;2023-12-28T06:08:43;7.63;;;1.30;;
56381;SDS011;74506;51.150;4.470;2023-12-28T06:11:09;6.35;;;1.58;;
56381;SDS011;74506;51.150;4.470;2023-12-28T06:13:34;9.40;;;1.58;;
56381;SDS011;74506;51.150;4.470;2023-12-28T06:16:01;9.98;;;1.98;;
56381;SDS011;74506;51.150;4.470;2023-12-28T06:18:26;8.98;;;1.23;;
56381;SDS011;74506;51.150;4.470;2023-12-28T06:20:52;8.60;;;1.40;;
56381;SDS011;74506;51.150;4.470;2023-12-28T06:23:18;10.68;;;1.63;;
56381;SDS011;74506;51.150;4.470;2023-12-28T06:25:44;4.28;;;0.90;;
56381;SDS011;74506;51.150;4.470;2023-12-28T06:28:09;6.93;;;1.80;;
56381;SDS011;74506;51.150;4.470;2023-12-28T06:30:35;8.65;;;1.25;;
56381;SDS011;74506;51.150;4.470;2023-12-28T06:33:01;11.25;;;2.10;;
56381;SDS011;74506;51.150;4.470;2023-12-28T06:35:26;10.32;;;1.63;;
56381;SDS011;74506;51.150;4.470;2023-12-28T06:37:52;8.95;;;1.58;;
56381;SDS011;74506;51.150;4.470;2023-12-28T06:40:17;8.70;;;1.55;;
56381;SDS011;74506;51.150;4.470;2023-12-28T06:42:43;6.82;;;1.27;;
56381;SDS011;74506;51.150;4.470;2023-12-28T06:45:09;5.72;;;1.55;;
56381;SDS011;74506;51.150;4.470;2023-12-28T06:47:35;6.97;;;1.38;;
56381;SDS011;74506;51.150;4.470;2023-12-28T06:50:01;10.40;;;1.77;;
56381;SDS011;74506;51.150;4.470;2023-12-28T06:52:27;9.13;;;2.17;;
56381;SDS011;74506;51.150;4.470;2023-12-28T06:54:53;13.50;;;2.10;;
56381;SDS011;74506;51.150;4.470;2023-12-28T06:57:19;10.52;;;1.83;;
56381;SDS011;74506;51.150;4.470;2023-12-28T06:59:44;6.45;;;1.38;;
56381;SDS011;74506;51.150;4.470;2023-12-28T07:02:10;7.55;;;1.58;;
56381;SDS011;74506;51.150;4.470;2023-12-28T07:04:36;6.53;;;1.23;;
56381;SDS011;74506;51.150;4.470;2023-12-28T07:07:01;10.32;;;1.92;;
56381;SDS011;74506;51.150;4.470;2023-12-28T07:09:27;11.32;;;1.77;;
56381;SDS011;74506;51.150;4.470;2023-12-28T07:11:52;6.85;;;1.27;;
56381;SDS011;74506;51.150;4.470;2023-12-28T07:14:17;10.77;;;2.13;;
56381;SDS011;74506;51.150;4.470;2023-12-28T07:16:43;12.10;;;1.65;;
56381;SDS011;74506;51.150;4.470;2023-12-28T07:19:09;6.53;;;1.42;;
56381;SDS011;74506;51.150;4.470;2023-12-28T07:21:34;14.65;;;1.77;;
56381;SDS011;74506;51.150;4.470;2023-12-28T07:24:00;15.35;;;1.75;;
56381;SDS011;74506;51.150;4.470;2023-12-28T07:26:25;6.88;;;1.20;;
56381;SDS011;74506;51.150;4.470;2023-12-28T07:28:51;18.10;;;1.73;;
56381;SDS011;74506;51.150;4.470;2023-12-28T07:31:26;11.07;;;1.75;;
56381;SDS011;74506;51.150;4.470;2023-12-28T07:33:52;10.65;;;1.50;;
56381;SDS011;74506;51.150;4.470;2023-12-28T07:36:19;3.30;;;1.17;;
56381;SDS011;74506;51.150;4.470;2023-12-28T07:38:45;7.93;;;1.80;;
56381;SDS011;74506;51.150;4.470;2023-12-28T07:41:10;8.43;;;1.35;;
56381;SDS011;74506;51.150;4.470;2023-12-28T07:43:36;9.30;;;1.98;;
56381;SDS011;74506;51.150;4.470;2023-12-28T07:46:02;13.63;;;1.67;;
56381;SDS011;74506;51.150;4.470;2023-12-28T07:48:27;10.02;;;1.55;;
56381;SDS011;74506;51.150;4.470;2023-12-28T07:50:55;11.98;;;1.63;;
56381;SDS011;74506;51.150;4.470;2023-12-28T07:53:21;8.02;;;1.35;;
56381;SDS011;74506;51.150;4.470;2023-12-28T07:55:46;9.75;;;1.35;;
56381;SDS011;74506;51.150;4.470;2023-12-28T07:58:12;5.60;;;1.23;;
56381;SDS011;74506;51.150;4.470;2023-12-28T08:00:38;3.67;;;1.05;;
56381;SDS011;74506;51.150;4.470;2023-12-28T08:03:03;8.20;;;0.93;;
56381;SDS011;74506;51.150;4.470;2023-12-28T08:05:29;9.77;;;1.77;;
56381;SDS011;74506;51.150;4.470;2023-12-28T08:07:55;6.15;;;1.00;;
56381;SDS011;74506;51.150;4.470;2023-12-28T08:10:21;10.10;;;1.60;;
56381;SDS011;74506;51.150;4.470;2023-12-28T08:12:46;9.13;;;1.70;;
56381;SDS011;74506;51.150;4.470;2023-12-28T08:15:12;10.38;;;1.40;;
56381;SDS011;74506;51.150;4.470;2023-12-28T08:17:37;7.68;;;1.38;;
56381;SDS011;74506;51.150;4.470;2023-12-28T08:20:04;13.27;;;1.40;;
56381;SDS011;74506;51.150;4.470;2023-12-28T08:22:30;13.65;;;2.05;;
56381;SDS011;74506;51.150;4.470;2023-12-28T08:24:56;10.40;;;1.27;;
56381;SDS011;74506;51.150;4.470;2023-12-28T08:27:23;10.20;;;2.15;;
56381;SDS011;74506;51.150;4.470;2023-12-28T08:29:48;11.73;;;1.70;;
56381;SDS011;74506;51.150;4.470;2023-12-28T08:32:14;10.98;;;1.63;;
56381;SDS011;74506;51.150;4.470;2023-12-28T08:34:40;7.53;;;1.55;;
56381;SDS011;74506;51.150;4.470;2023-12-28T08:37:05;8.38;;;1.73;;
56381;SDS011;74506;51.150;4.470;2023-12-28T08:39:31;8.93;;;1.63;;
56381;SDS011;74506;51.150;4.470;2023-12-28T08:41:57;11.70;;;1.50;;
56381;SDS011;74506;51.150;4.470;2023-12-28T08:44:23;8.88;;;2.20;;
56381;SDS011;74506;51.150;4.470;2023-12-28T08:46:49;5.25;;;1.55;;
56381;SDS011;74506;51.150;4.470;2023-12-28T08:49:14;11.65;;;1.48;;
56381;SDS011;74506;51.150;4.470;2023-12-28T08:51:41;12.60;;;2.45;;
56381;SDS011;74506;51.150;4.470;2023-12-28T08:54:07;13.35;;;1.73;;
56381;SDS011;74506;51.150;4.470;2023-12-28T08:56:34;18.25;;;2.83;;
56381;SDS011;74506;51.150;4.470;2023-12-28T08:59:00;14.50;;;1.98;;
56381;SDS011;74506;51.150;4.470;2023-12-28T09:01:26;11.13;;;1.73;;
56381;SDS011;74506;51.150;4.470;2023-12-28T09:03:52;14.45;;;2.20;;
56381;SDS011;74506;51.150;4.470;2023-12-28T09:06:18;10.88;;;1.70;;
56381;SDS011;74506;51.150;4.470;2023-12-28T09:08:45;15.00;;;2.08;;
56381;SDS011;74506;51.150;4.470;2023-12-28T09:11:13;14.10;;;2.05;;
56381;SDS011;74506;51.150;4.470;2023-12-28T09:13:39;9.38;;;1.02;;
56381;SDS011;74506;51.150;4.470;2023-12-28T09:16:05;11.07;;;1.63;;
56381;SDS011;74506;51.150;4.470;2023-12-28T09:18:31;8.45;;;1.98;;
56381;SDS011;74506;51.150;4.470;2023-12-28T09:20:56;6.95;;;1.08;;
56381;SDS011;74506;51.150;4.470;2023-12-28T09:23:22;13.02;;;2.97;;
56381;SDS011;74506;51.150;4.470;2023-12-28T09:25:48;9.50;;;1.92;;
56381;SDS011;74506;51.150;4.470;2023-12-28T09:28:14;11.38;;;2.05;;
56381;SDS011;74506;51.150;4.470;2023-12-28T09:30:40;8.57;;;1.88;;
56381;SDS011;74506;51.150;4.470;2023-12-28T09:33:05;8.15;;;1.80;;
56381;SDS011;74506;51.150;4.470;2023-12-28T09:35:31;12.65;;;2.58;;
56381;SDS011;74506;51.150;4.470;2023-12-28T09:37:57;8.88;;;1.55;;
56381;SDS011;74506;51.150;4.470;2023-12-28T09:40:24;7.90;;;2.53;;
56381;SDS011;74506;51.150;4.470;2023-12-28T09:45:34;11.98;;;1.67;;
56381;SDS011;74506;51.150;4.470;2023-12-28T09:48:00;12.43;;;2.13;;
56381;SDS011;74506;51.150;4.470;2023-12-28T09:50:25;10.65;;;1.55;;
56381;SDS011;74506;51.150;4.470;2023-12-28T09:52:55;13.85;;;2.22;;
56381;SDS011;74506;51.150;4.470;2023-12-28T09:55:20;14.18;;;2.53;;
56381;SDS011;74506;51.150;4.470;2023-12-28T09:57:46;8.18;;;1.20;;
56381;SDS011;74506;51.150;4.470;2023-12-28T10:00:12;13.50;;;1.90;;
56381;SDS011;74506;51.150;4.470;2023-12-28T10:02:41;6.93;;;1.65;;
56381;SDS011;74506;51.150;4.470;2023-12-28T10:05:11;6.32;;;1.40;;
56381;SDS011;74506;51.150;4.470;2023-12-28T10:07:41;7.82;;;1.45;;
56381;SDS011;74506;51.150;4.470;2023-12-28T10:10:07;17.35;;;3.05;;
56381;SDS011;74506;51.150;4.470;2023-12-28T10:12:34;14.55;;;2.15;;
56381;SDS011;74506;51.150;4.470;2023-12-28T10:15:00;10.68;;;1.70;;
56381;SDS011;74506;51.150;4.470;2023-12-28T10:17:25;8.18;;;1.52;;
56381;SDS011;74506;51.150;4.470;2023-12-28T10:19:52;13.27;;;2.80;;
56381;SDS011;74506;51.150;4.470;2023-12-28T10:22:18;14.50;;;1.88;;
56381;SDS011;74506;51.150;4.470;2023-12-28T10:24:44;11.18;;;1.90;;
56381;SDS011;74506;51.150;4.470;2023-12-28T10:27:09;10.15;;;1.77;;
56381;SDS011;74506;51.150;4.470;2023-12-28T10:29:36;11.27;;;1.98;;
56381;SDS011;74506;51.150;4.470;2023-12-28T10:32:01;16.75;;;2.88;;
56381;SDS011;74506;51.150;4.470;2023-12-28T10:34:27;8.32;;;1.35;;
56381;SDS011;74506;51.150;4.470;2023-12-28T10:36:53;14.10;;;2.55;;
56381;SDS011;74506;51.150;4.470;2023-12-28T10:39:19;12.00;;;1.98;;
56381;SDS011;74506;51.150;4.470;2023-12-28T10:41:45;12.93;;;1.95;;
56381;SDS011;74506;51.150;4.470;2023-12-28T10:44:15;17.05;;;2.03;;
56381;SDS011;74506;51.150;4.470;2023-12-28T10:46:43;7.10;;;1.58;;
56381;SDS011;74506;51.150;4.470;2023-12-28T10:49:10;11.00;;;1.88;;
56381;SDS011;74506;51.150;4.470;2023-12-28T10:51:37;8.32;;;1.23;;
56381;SDS011;74506;51.150;4.470;2023-12-28T10:56:35;15.07;;;1.85;;
56381;SDS011;74506;51.150;4.470;2023-12-28T11:01:48;8.20;;;1.65;;
56381;SDS011;74506;51.150;4.470;2023-12-28T11:04:23;15.02;;;2.20;;
56381;SDS011;74506;51.150;4.470;2023-12-28T11:06:49;4.80;;;1.30;;
56381;SDS011;74506;51.150;4.470;2023-12-28T11:09:15;12.75;;;1.50;;
56381;SDS011;74506;51.150;4.470;2023-12-28T11:11:43;11.25;;;2.03;;
56381;SDS011;74506;51.150;4.470;2023-12-28T11:14:09;11.88;;;1.92;;
56381;SDS011;74506;51.150;4.470;2023-12-28T11:16:34;7.97;;;1.27;;
56381;SDS011;74506;51.150;4.470;2023-12-28T11:19:01;16.08;;;1.67;;
56381;SDS011;74506;51.150;4.470;2023-12-28T11:21:28;10.23;;;2.10;;
56381;SDS011;74506;51.150;4.470;2023-12-28T11:23:54;12.70;;;1.85;;
56381;SDS011;74506;51.150;4.470;2023-12-28T11:26:20;11.50;;;1.70;;
56381;SDS011;74506;51.150;4.470;2023-12-28T11:28:46;11.65;;;1.83;;
56381;SDS011;74506;51.150;4.470;2023-12-28T11:31:15;10.55;;;1.83;;
56381;SDS011;74506;51.150;4.470;2023-12-28T11:33:44;3.83;;;0.88;;
56381;SDS011;74506;51.150;4.470;2023-12-28T11:36:10;13.18;;;2.05;;
56381;SDS011;74506;51.150;4.470;2023-12-28T11:38:37;20.58;;;2.70;;
56381;SDS011;74506;51.150;4.470;2023-12-28T11:41:04;17.08;;;2.42;;
56381;SDS011;74506;51.150;4.470;2023-12-28T11:43:34;13.90;;;2.30;;
56381;SDS011;74506;51.150;4.470;2023-12-28T11:46:00;6.15;;;1.48;;
56381;SDS011;74506;51.150;4.470;2023-12-28T11:48:26;9.13;;;1.58;;
56381;SDS011;74506;51.150;4.470;2023-12-28T11:50:54;13.88;;;2.28;;
56381;SDS011;74506;51.150;4.470;2023-12-28T11:53:20;9.30;;;1.33;;
56381;SDS011;74506;51.150;4.470;2023-12-28T11:55:46;8.50;;;1.92;;
56381;SDS011;74506;51.150;4.470;2023-12-28T11:58:11;20.58;;;2.90;;
56381;SDS011;74506;51.150;4.470;2023-12-28T12:00:37;13.90;;;1.30;;
56381;SDS011;74506;51.150;4.470;2023-12-28T12:03:03;14.88;;;1.83;;
56381;SDS011;74506;51.150;4.470;2023-12-28T12:05:28;17.55;;;2.50;;
56381;SDS011;74506;51.150;4.470;2023-12-28T12:07:57;10.00;;;1.65;;
56381;SDS011;74506;51.150;4.470;2023-12-28T12:10:22;12.13;;;1.80;;
56381;SDS011;74506;51.150;4.470;2023-12-28T12:12:50;6.35;;;1.40;;
56381;SDS011;74506;51.150;4.470;2023-12-28T12:15:16;11.18;;;2.33;;
56381;SDS011;74506;51.150;4.470;2023-12-28T12:17:42;12.68;;;1.50;;
56381;SDS011;74506;51.150;4.470;2023-12-28T12:20:08;10.27;;;2.13;;
56381;SDS011;74506;51.150;4.470;2023-12-28T12:22:34;12.77;;;1.92;;
56381;SDS011;74506;51.150;4.470;2023-12-28T12:25:01;13.13;;;1.88;;
56381;SDS011;74506;51.150;4.470;2023-12-28T12:27:29;11.68;;;1.48;;
56381;SDS011;74506;51.150;4.470;2023-12-28T12:29:54;11.57;;;2.35;;
56381;SDS011;74506;51.150;4.470;2023-12-28T12:32:20;14.30;;;1.83;;
56381;SDS011;74506;51.150;4.470;2023-12-28T12:34:47;18.20;;;2.58;;
56381;SDS011;74506;51.150;4.470;2023-12-28T12:37:12;22.02;;;3.15;;
56381;SDS011;74506;51.150;4.470;2023-12-28T12:39:38;15.50;;;2.10;;
56381;SDS011;74506;51.150;4.470;2023-12-28T12:42:04;8.55;;;1.90;;
56381;SDS011;74506;51.150;4.470;2023-12-28T12:44:30;15.38;;;2.20;;
56381;SDS011;74506;51.150;4.470;2023-12-28T12:46:56;14.40;;;2.70;;
56381;SDS011;74506;51.150;4.470;2023-12-28T12:49:22;9.40;;;2.58;;
56381;SDS011;74506;51.150;4.470;2023-12-28T12:51:48;16.20;;;2.53;;
56381;SDS011;74506;51.150;4.470;2023-12-28T12:54:16;12.05;;;1.70;;
56381;SDS011;74506;51.150;4.470;2023-12-28T12:56:42;9.18;;;2.28;;
56381;SDS011;74506;51.150;4.470;2023-12-28T12:59:11;17.63;;;1.92;;
56381;SDS011;74506;51.150;4.470;2023-12-28T13:01:41;11.65;;;1.80;;
56381;SDS011;74506;51.150;4.470;2023-12-28T13:04:07;14.35;;;2.10;;
56381;SDS011;74506;51.150;4.470;2023-12-28T13:06:33;14.82;;;2.10;;
56381;SDS011;74506;51.150;4.470;2023-12-28T13:08:58;11.55;;;1.90;;
56381;SDS011;74506;51.150;4.470;2023-12-28T13:11:25;13.07;;;2.42;;
56381;SDS011;74506;51.150;4.470;2023-12-28T13:13:52;14.63;;;1.67;;
56381;SDS011;74506;51.150;4.470;2023-12-28T13:16:17;12.48;;;2.35;;
56381;SDS011;74506;51.150;4.470;2023-12-28T13:18:43;10.90;;;1.92;;
56381;SDS011;74506;51.150;4.470;2023-12-28T13:21:09;17.17;;;1.85;;
56381;SDS011;74506;51.150;4.470;2023-12-28T13:23:34;13.95;;;2.70;;
56381;SDS011;74506;51.150;4.470;2023-12-28T13:26:00;8.05;;;2.33;;
56381;SDS011;74506;51.150;4.470;2023-12-28T13:28:26;10.90;;;1.50;;
56381;SDS011;74506;51.150;4.470;2023-12-28T13:30:51;10.48;;;2.10;;
56381;SDS011;74506;51.150;4.470;2023-12-28T13:33:21;12.50;;;2.10;;
56381;SDS011;74506;51.150;4.470;2023-12-28T13:35:46;10.98;;;1.60;;
56381;SDS011;74506;51.150;4.470;2023-12-28T13:38:12;12.40;;;1.90;;
56381;SDS011;74506;51.150;4.470;2023-12-28T13:40:38;12.00;;;2.17;;
56381;SDS011;74506;51.150;4.470;2023-12-28T13:43:03;10.35;;;2.70;;
56381;SDS011;74506;51.150;4.470;2023-12-28T13:45:29;11.02;;;1.40;;
56381;SDS011;74506;51.150;4.470;2023-12-28T13:47:55;10.18;;;2.28;;
56381;SDS011;74506;51.150;4.470;2023-12-28T13:50:20;14.23;;;2.45;;
56381;SDS011;74506;51.150;4.470;2023-12-28T13:52:46;12.38;;;2.05;;
56381;SDS011;74506;51.150;4.470;2023-12-28T13:55:12;12.63;;;1.52;;
56381;SDS011;74506;51.150;4.470;2023-12-28T13:57:40;9.93;;;2.33;;
56381;SDS011;74506;51.150;4.470;2023-12-28T14:00:06;12.90;;;2.33;;
56381;SDS011;74506;51.150;4.470;2023-12-28T14:05:06;12.90;;;1.75;;
56381;SDS011;74506;51.150;4.470;2023-12-28T14:07:32;10.07;;;1.90;;
56381;SDS011;74506;51.150;4.470;2023-12-28T14:09:58;14.00;;;1.95;;
56381;SDS011;74506;51.150;4.470;2023-12-28T14:12:24;9.43;;;1.90;;
56381;SDS011;74506;51.150;4.470;2023-12-28T14:14:49;9.65;;;1.50;;
56381;SDS011;74506;51.150;4.470;2023-12-28T14:17:15;5.15;;;1.60;;
56381;SDS011;74506;51.150;4.470;2023-12-28T14:19:45;14.32;;;3.13;;
56381;SDS011;74506;51.150;4.470;2023-12-28T14:22:11;16.35;;;2.28;;
56381;SDS011;74506;51.150;4.470;2023-12-28T14:24:37;11.40;;;1.20;;
56381;SDS011;74506;51.150;4.470;2023-12-28T14:27:03;5.70;;;1.08;;
56381;SDS011;74506;51.150;4.470;2023-12-28T14:29:29;10.15;;;1.83;;
56381;SDS011;74506;51.150;4.470;2023-12-28T14:31:55;13.38;;;2.42;;
56381;SDS011;74506;51.150;4.470;2023-12-28T14:34:21;9.88;;;2.53;;
56381;SDS011;74506;51.150;4.470;2023-12-28T14:36:47;7.95;;;1.40;;
56381;SDS011;74506;51.150;4.470;2023-12-28T14:39:16;7.35;;;1.05;;
56381;SDS011;74506;51.150;4.470;2023-12-28T14:41:45;9.25;;;2.50;;
56381;SDS011;74506;51.150;4.470;2023-12-28T14:44:10;9.63;;;2.10;;
56381;SDS011;74506;51.150;4.470;2023-12-28T14:46:36;13.70;;;3.38;;
56381;SDS011;74506;51.150;4.470;2023-12-28T14:49:02;9.20;;;1.27;;